sensor_id;sensor_type;location;lat;lon;timestamp;temperature;humidity
34406;DHT22;20658;45.630;8.886;2023-01-01T00:01:27;8.70;99.90
34406;DHT22;20658;45.630;8.886;2023-01-01T00:03:58;8.70;99.90
34406;DHT22;20658;45.630;8.886;2023-01-01T00:06:31;8.70;99.90
34406;DHT22;20658;45.630;8.886;2023-01-01T00:09:05;8.70;99.90
34406;DHT22;20658;45.630;8.886;2023-01-01T00:11:57;8.70;99.90
34406;DHT22;20658;45.630;8.886;2023-01-01T00:14:30;8.70;99.90
34406;DHT22;20658;45.630;8.886;2023-01-01T00:17:04;8.70;99.90
34406;DHT22;20658;45.630;8.886;2023-01-01T00:19:37;8.70;99.90
34406;DHT22;20658;45.630;8.886;2023-01-01T00:22:10;8.70;99.90
34406;DHT22;20658;45.630;8.886;2023-01-01T00:24:44;8.70;99.90
34406;DHT22;20658;45.630;8.886;2023-01-01T00:27:18;8.70;99.90
34406;DHT22;20658;45.630;8.886;2023-01-01T00:29:52;8.70;99.90
34406;DHT22;20658;45.630;8.886;2023-01-01T00:32:25;8.70;99.90
34406;DHT22;20658;45.630;8.886;2023-01-01T00:34:58;8.80;99.90
34406;DHT22;20658;45.630;8.886;2023-01-01T00:37:32;8.80;99.90
34406;DHT22;20658;45.630;8.886;2023-01-01T00:40:06;8.80;99.90
34406;DHT22;20658;45.630;8.886;2023-01-01T00:42:41;8.80;99.90
34406;DHT22;20658;45.630;8.886;2023-01-01T00:45:15;8.70;99.90
34406;DHT22;20658;45.630;8.886;2023-01-01T00:47:49;8.70;99.90
34406;DHT22;20658;45.630;8.886;2023-01-01T00:50:18;8.70;99.90
34406;DHT22;20658;45.630;8.886;2023-01-01T00:52:51;8.70;99.90
34406;DHT22;20658;45.630;8.886;2023-01-01T00:55:20;8.70;99.90
34406;DHT22;20658;45.630;8.886;2023-01-01T00:57:54;8.70;99.90
34406;DHT22;20658;45.630;8.886;2023-01-01T01:00:28;8.70;99.90
34406;DHT22;20658;45.630;8.886;2023-01-01T01:03:01;8.70;99.90
34406;DHT22;20658;45.630;8.886;2023-01-01T01:05:37;8.70;99.90
34406;DHT22;20658;45.630;8.886;2023-01-01T01:08:06;8.70;99.90
34406;DHT22;20658;45.630;8.886;2023-01-01T01:10:39;8.70;99.90
34406;DHT22;20658;45.630;8.886;2023-01-01T01:13:13;8.70;99.90
34406;DHT22;20658;45.630;8.886;2023-01-01T01:15:47;8.70;99.90
34406;DHT22;20658;45.630;8.886;2023-01-01T01:18:20;8.70;99.90
34406;DHT22;20658;45.630;8.886;2023-01-01T01:20:53;8.80;99.90
34406;DHT22;20658;45.630;8.886;2023-01-01T01:23:27;8.70;99.90
34406;DHT22;20658;45.630;8.886;2023-01-01T01:26:08;8.80;99.90
34406;DHT22;20658;45.630;8.886;2023-01-01T01:28:44;8.80;99.90
34406;DHT22;20658;45.630;8.886;2023-01-01T01:31:20;8.80;99.90
34406;DHT22;20658;45.630;8.886;2023-01-01T01:33:49;8.80;99.90
34406;DHT22;20658;45.630;8.886;2023-01-01T01:36:18;8.80;99.90
34406;DHT22;20658;45.630;8.886;2023-01-01T01:38:47;8.80;99.90
34406;DHT22;20658;45.630;8.886;2023-01-01T01:41:22;8.80;99.90
34406;DHT22;20658;45.630;8.886;2023-01-01T01:44:00;8.90;99.90
34406;DHT22;20658;45.630;8.886;2023-01-01T01:46:32;8.80;99.90
34406;DHT22;20658;45.630;8.886;2023-01-01T01:49:13;8.80;99.90
34406;DHT22;20658;45.630;8.886;2023-01-01T01:51:48;8.80;99.90
34406;DHT22;20658;45.630;8.886;2023-01-01T01:54:25;8.80;99.90
34406;DHT22;20658;45.630;8.886;2023-01-01T01:56:56;8.80;99.90
34406;DHT22;20658;45.630;8.886;2023-01-01T01:59:35;8.80;99.90
34406;DHT22;20658;45.630;8.886;2023-01-01T02:02:15;8.80;99.90
34406;DHT22;20658;45.630;8.886;2023-01-01T02:04:51;8.70;99.90
34406;DHT22;20658;45.630;8.886;2023-01-01T02:07:26;8.80;99.90
34406;DHT22;20658;45.630;8.886;2023-01-01T02:10:01;8.80;99.90
34406;DHT22;20658;45.630;8.886;2023-01-01T02:12:35;8.80;99.90
34406;DHT22;20658;45.630;8.886;2023-01-01T02:15:10;8.80;99.90
34406;DHT22;20658;45.630;8.886;2023-01-01T02:17:53;8.80;99.90
34406;DHT22;20658;45.630;8.886;2023-01-01T02:20:43;8.80;99.90
34406;DHT22;20658;45.630;8.886;2023-01-01T02:23:45;8.80;99.90
34406;DHT22;20658;45.630;8.886;2023-01-01T02:26:34;8.80;99.90
34406;DHT22;20658;45.630;8.886;2023-01-01T02:29:30;8.80;99.90
34406;DHT22;20658;45.630;8.886;2023-01-01T02:32:13;8.80;99.90
34406;DHT22;20658;45.630;8.886;2023-01-01T02:34:53;8.80;99.90
34406;DHT22;20658;45.630;8.886;2023-01-01T02:37:30;8.80;99.90
34406;DHT22;20658;45.630;8.886;2023-01-01T02:40:04;8.90;99.90
34406;DHT22;20658;45.630;8.886;2023-01-01T02:42:38;8.90;99.90
34406;DHT22;20658;45.630;8.886;2023-01-01T02:45:13;8.80;99.90
34406;DHT22;20658;45.630;8.886;2023-01-01T02:47:47;8.90;99.90
34406;DHT22;20658;45.630;8.886;2023-01-01T02:50:23;8.80;99.90
34406;DHT22;20658;45.630;8.886;2023-01-01T02:53:06;8.90;99.90
34406;DHT22;20658;45.630;8.886;2023-01-01T02:55:50;8.80;99.90
34406;DHT22;20658;45.630;8.886;2023-01-01T02:58:33;8.80;99.90
34406;DHT22;20658;45.630;8.886;2023-01-01T03:01:32;8.80;99.90
34406;DHT22;20658;45.630;8.886;2023-01-01T03:04:06;8.80;99.90
34406;DHT22;20658;45.630;8.886;2023-01-01T03:06:43;8.80;99.90
34406;DHT22;20658;45.630;8.886;2023-01-01T03:09:22;8.80;99.90
34406;DHT22;20658;45.630;8.886;2023-01-01T03:12:02;8.80;99.90
34406;DHT22;20658;45.630;8.886;2023-01-01T03:14:41;8.80;99.90
34406;DHT22;20658;45.630;8.886;2023-01-01T03:17:23;8.80;99.90
34406;DHT22;20658;45.630;8.886;2023-01-01T03:19:54;8.80;99.90
34406;DHT22;20658;45.630;8.886;2023-01-01T03:22:31;8.80;99.90
34406;DHT22;20658;45.630;8.886;2023-01-01T03:25:07;8.80;99.90
34406;DHT22;20658;45.630;8.886;2023-01-01T03:27:45;8.80;99.90
34406;DHT22;20658;45.630;8.886;2023-01-01T03:30:22;8.80;99.90
34406;DHT22;20658;45.630;8.886;2023-01-01T03:33:00;8.70;99.90
34406;DHT22;20658;45.630;8.886;2023-01-01T03:35:39;8.70;99.90
34406;DHT22;20658;45.630;8.886;2023-01-01T03:38:18;8.60;99.90
34406;DHT22;20658;45.630;8.886;2023-01-01T03:40:59;8.50;99.90
34406;DHT22;20658;45.630;8.886;2023-01-01T03:43:38;8.50;99.90
34406;DHT22;20658;45.630;8.886;2023-01-01T03:46:20;8.50;99.90
34406;DHT22;20658;45.630;8.886;2023-01-01T03:48:57;8.60;99.90
34406;DHT22;20658;45.630;8.886;2023-01-01T03:51:48;8.60;99.90
34406;DHT22;20658;45.630;8.886;2023-01-01T03:54:36;8.70;99.90
34406;DHT22;20658;45.630;8.886;2023-01-01T03:57:18;8.70;99.90
34406;DHT22;20658;45.630;8.886;2023-01-01T03:59:57;8.70;99.90
34406;DHT22;20658;45.630;8.886;2023-01-01T04:02:40;8.70;99.90
34406;DHT22;20658;45.630;8.886;2023-01-01T04:05:19;8.70;99.90
34406;DHT22;20658;45.630;8.886;2023-01-01T04:07:53;8.70;99.90
34406;DHT22;20658;45.630;8.886;2023-01-01T04:10:29;8.70;99.90
34406;DHT22;20658;45.630;8.886;2023-01-01T04:13:04;8.70;99.90
34406;DHT22;20658;45.630;8.886;2023-01-01T04:15:34;8.70;99.90
34406;DHT22;20658;45.630;8.886;2023-01-01T04:18:07;8.60;99.90
34406;DHT22;20658;45.630;8.886;2023-01-01T04:20:42;8.70;99.90
34406;DHT22;20658;45.630;8.886;2023-01-01T04:23:16;8.60;99.90
34406;DHT22;20658;45.630;8.886;2023-01-01T04:25:49;8.60;99.90
34406;DHT22;20658;45.630;8.886;2023-01-01T04:28:23;8.60;99.90
34406;DHT22;20658;45.630;8.886;2023-01-01T04:30:56;8.60;99.90
34406;DHT22;20658;45.630;8.886;2023-01-01T04:33:33;8.60;99.90
34406;DHT22;20658;45.630;8.886;2023-01-01T04:36:09;8.50;99.90
34406;DHT22;20658;45.630;8.886;2023-01-01T04:38:42;8.50;99.90
34406;DHT22;20658;45.630;8.886;2023-01-01T04:41:16;8.50;99.90
34406;DHT22;20658;45.630;8.886;2023-01-01T04:43:49;8.50;99.90
34406;DHT22;20658;45.630;8.886;2023-01-01T04:46:23;8.50;99.90
34406;DHT22;20658;45.630;8.886;2023-01-01T04:48:57;8.50;99.90
34406;DHT22;20658;45.630;8.886;2023-01-01T04:51:31;8.50;99.90
34406;DHT22;20658;45.630;8.886;2023-01-01T04:54:05;8.50;99.90
34406;DHT22;20658;45.630;8.886;2023-01-01T04:56:38;8.40;99.90
34406;DHT22;20658;45.630;8.886;2023-01-01T04:59:11;8.40;99.90
34406;DHT22;20658;45.630;8.886;2023-01-01T05:01:45;8.40;99.90
34406;DHT22;20658;45.630;8.886;2023-01-01T05:04:18;8.40;99.90
34406;DHT22;20658;45.630;8.886;2023-01-01T05:06:53;8.40;99.90
34406;DHT22;20658;45.630;8.886;2023-01-01T05:09:27;8.40;99.90
34406;DHT22;20658;45.630;8.886;2023-01-01T05:12:00;8.40;99.90
34406;DHT22;20658;45.630;8.886;2023-01-01T05:14:33;8.40;99.90
34406;DHT22;20658;45.630;8.886;2023-01-01T05:17:06;8.40;99.90
34406;DHT22;20658;45.630;8.886;2023-01-01T05:19:40;8.40;99.90
34406;DHT22;20658;45.630;8.886;2023-01-01T05:22:14;8.40;99.90
34406;DHT22;20658;45.630;8.886;2023-01-01T05:24:48;8.40;99.90
34406;DHT22;20658;45.630;8.886;2023-01-01T05:27:21;8.40;99.90
34406;DHT22;20658;45.630;8.886;2023-01-01T05:29:54;8.40;99.90
34406;DHT22;20658;45.630;8.886;2023-01-01T05:32:28;8.40;99.90
34406;DHT22;20658;45.630;8.886;2023-01-01T05:35:01;8.40;99.90
34406;DHT22;20658;45.630;8.886;2023-01-01T05:37:36;8.50;99.90
34406;DHT22;20658;45.630;8.886;2023-01-01T05:40:10;8.40;99.90
34406;DHT22;20658;45.630;8.886;2023-01-01T05:42:46;8.40;99.90
34406;DHT22;20658;45.630;8.886;2023-01-01T05:45:19;8.50;99.90
34406;DHT22;20658;45.630;8.886;2023-01-01T05:47:53;8.50;99.90
34406;DHT22;20658;45.630;8.886;2023-01-01T05:50:22;8.50;99.90
34406;DHT22;20658;45.630;8.886;2023-01-01T05:52:57;8.50;99.90
34406;DHT22;20658;45.630;8.886;2023-01-01T05:55:30;8.50;99.90
34406;DHT22;20658;45.630;8.886;2023-01-01T05:58:03;8.50;99.90
34406;DHT22;20658;45.630;8.886;2023-01-01T06:00:37;8.50;99.90
34406;DHT22;20658;45.630;8.886;2023-01-01T06:03:10;8.60;99.90
34406;DHT22;20658;45.630;8.886;2023-01-01T06:05:44;8.50;99.90
34406;DHT22;20658;45.630;8.886;2023-01-01T06:08:19;8.50;99.90
34406;DHT22;20658;45.630;8.886;2023-01-01T06:10:57;8.50;99.90
34406;DHT22;20658;45.630;8.886;2023-01-01T06:13:31;8.50;99.90
34406;DHT22;20658;45.630;8.886;2023-01-01T06:16:05;8.50;99.90
34406;DHT22;20658;45.630;8.886;2023-01-01T06:18:40;8.50;99.90
34406;DHT22;20658;45.630;8.886;2023-01-01T06:21:10;8.40;99.90
34406;DHT22;20658;45.630;8.886;2023-01-01T06:23:46;8.40;99.90
34406;DHT22;20658;45.630;8.886;2023-01-01T06:26:21;8.40;99.90
34406;DHT22;20658;45.630;8.886;2023-01-01T06:28:55;8.40;99.90
34406;DHT22;20658;45.630;8.886;2023-01-01T06:31:29;8.40;99.90
34406;DHT22;20658;45.630;8.886;2023-01-01T06:34:03;8.40;99.90
34406;DHT22;20658;45.630;8.886;2023-01-01T06:36:36;8.40;99.90
34406;DHT22;20658;45.630;8.886;2023-01-01T06:39:11;8.40;99.90
34406;DHT22;20658;45.630;8.886;2023-01-01T06:41:44;8.40;99.90
34406;DHT22;20658;45.630;8.886;2023-01-01T06:44:18;8.40;99.90
34406;DHT22;20658;45.630;8.886;2023-01-01T06:46:51;8.40;99.90
34406;DHT22;20658;45.630;8.886;2023-01-01T06:49:24;8.50;99.90
34406;DHT22;20658;45.630;8.886;2023-01-01T06:51:58;8.50;99.90
34406;DHT22;20658;45.630;8.886;2023-01-01T06:54:32;8.50;99.90
34406;DHT22;20658;45.630;8.886;2023-01-01T06:57:06;8.70;99.90
34406;DHT22;20658;45.630;8.886;2023-01-01T06:59:39;8.50;99.90
34406;DHT22;20658;45.630;8.886;2023-01-01T07:02:12;8.50;99.90
34406;DHT22;20658;45.630;8.886;2023-01-01T07:04:46;8.50;99.90
34406;DHT22;20658;45.630;8.886;2023-01-01T07:07:19;8.60;99.90
34406;DHT22;20658;45.630;8.886;2023-01-01T07:09:54;8.60;99.90
34406;DHT22;20658;45.630;8.886;2023-01-01T07:12:27;8.60;99.90
34406;DHT22;20658;45.630;8.886;2023-01-01T07:15:00;8.60;99.90
34406;DHT22;20658;45.630;8.886;2023-01-01T07:17:33;8.70;99.90
34406;DHT22;20658;45.630;8.886;2023-01-01T07:20:07;8.60;99.90
34406;DHT22;20658;45.630;8.886;2023-01-01T07:22:41;8.60;99.90
34406;DHT22;20658;45.630;8.886;2023-01-01T07:25:16;8.60;99.90
34406;DHT22;20658;45.630;8.886;2023-01-01T07:27:49;8.60;99.90
34406;DHT22;20658;45.630;8.886;2023-01-01T07:30:23;8.60;99.90
34406;DHT22;20658;45.630;8.886;2023-01-01T07:32:53;8.60;99.90
34406;DHT22;20658;45.630;8.886;2023-01-01T07:35:27;8.60;99.90
34406;DHT22;20658;45.630;8.886;2023-01-01T07:37:55;8.60;99.90
34406;DHT22;20658;45.630;8.886;2023-01-01T07:40:30;8.60;99.90
34406;DHT22;20658;45.630;8.886;2023-01-01T07:43:04;8.60;99.90
34406;DHT22;20658;45.630;8.886;2023-01-01T07:45:37;8.70;99.90
34406;DHT22;20658;45.630;8.886;2023-01-01T07:48:13;8.70;99.90
34406;DHT22;20658;45.630;8.886;2023-01-01T07:50:47;8.70;99.90
34406;DHT22;20658;45.630;8.886;2023-01-01T07:53:16;8.70;99.90
34406;DHT22;20658;45.630;8.886;2023-01-01T07:55:51;8.80;99.90
34406;DHT22;20658;45.630;8.886;2023-01-01T07:58:24;8.80;99.90
34406;DHT22;20658;45.630;8.886;2023-01-01T08:00:52;8.80;99.90
34406;DHT22;20658;45.630;8.886;2023-01-01T08:03:26;8.80;99.90
34406;DHT22;20658;45.630;8.886;2023-01-01T08:06:06;8.90;99.90
34406;DHT22;20658;45.630;8.886;2023-01-01T08:08:40;8.90;99.90
34406;DHT22;20658;45.630;8.886;2023-01-01T08:11:15;8.90;99.90
34406;DHT22;20658;45.630;8.886;2023-01-01T08:13:48;8.90;99.90
34406;DHT22;20658;45.630;8.886;2023-01-01T08:16:21;9.00;99.90
34406;DHT22;20658;45.630;8.886;2023-01-01T08:18:55;9.00;99.90
34406;DHT22;20658;45.630;8.886;2023-01-01T08:21:28;9.00;99.90
34406;DHT22;20658;45.630;8.886;2023-01-01T08:24:02;9.10;99.90
34406;DHT22;20658;45.630;8.886;2023-01-01T08:26:37;9.10;99.90
34406;DHT22;20658;45.630;8.886;2023-01-01T08:29:10;9.10;99.90
34406;DHT22;20658;45.630;8.886;2023-01-01T08:31:44;9.20;99.90
34406;DHT22;20658;45.630;8.886;2023-01-01T08:34:17;9.20;99.90
34406;DHT22;20658;45.630;8.886;2023-01-01T08:36:51;9.10;99.90
34406;DHT22;20658;45.630;8.886;2023-01-01T08:39:25;9.10;99.90
34406;DHT22;20658;45.630;8.886;2023-01-01T08:42:00;9.20;99.90
34406;DHT22;20658;45.630;8.886;2023-01-01T08:44:33;9.20;99.90
34406;DHT22;20658;45.630;8.886;2023-01-01T08:47:16;9.20;99.90
34406;DHT22;20658;45.630;8.886;2023-01-01T08:49:45;9.30;99.90
34406;DHT22;20658;45.630;8.886;2023-01-01T08:52:19;9.30;99.90
34406;DHT22;20658;45.630;8.886;2023-01-01T08:54:53;9.40;99.90
34406;DHT22;20658;45.630;8.886;2023-01-01T08:57:33;9.40;99.90
34406;DHT22;20658;45.630;8.886;2023-01-01T09:00:02;9.40;99.90
34406;DHT22;20658;45.630;8.886;2023-01-01T09:02:36;9.50;99.90
34406;DHT22;20658;45.630;8.886;2023-01-01T09:05:09;9.50;99.90
34406;DHT22;20658;45.630;8.886;2023-01-01T09:07:38;9.60;99.90
34406;DHT22;20658;45.630;8.886;2023-01-01T09:10:07;9.60;99.90
34406;DHT22;20658;45.630;8.886;2023-01-01T09:12:42;9.60;99.90
34406;DHT22;20658;45.630;8.886;2023-01-01T09:15:16;9.60;99.90
34406;DHT22;20658;45.630;8.886;2023-01-01T09:17:45;9.70;99.90
34406;DHT22;20658;45.630;8.886;2023-01-01T09:20:13;9.80;99.90
34406;DHT22;20658;45.630;8.886;2023-01-01T09:22:47;9.70;99.90
34406;DHT22;20658;45.630;8.886;2023-01-01T09:25:20;9.70;99.90
34406;DHT22;20658;45.630;8.886;2023-01-01T09:27:57;9.70;99.90
34406;DHT22;20658;45.630;8.886;2023-01-01T09:30:31;9.80;99.90
34406;DHT22;20658;45.630;8.886;2023-01-01T09:33:04;9.80;99.90
34406;DHT22;20658;45.630;8.886;2023-01-01T09:35:38;9.80;99.90
34406;DHT22;20658;45.630;8.886;2023-01-01T09:38:14;9.90;99.90
34406;DHT22;20658;45.630;8.886;2023-01-01T09:40:54;9.90;99.90
34406;DHT22;20658;45.630;8.886;2023-01-01T09:43:41;10.00;99.90
34406;DHT22;20658;45.630;8.886;2023-01-01T09:46:22;10.00;99.90
34406;DHT22;20658;45.630;8.886;2023-01-01T09:49:00;10.10;99.90
34406;DHT22;20658;45.630;8.886;2023-01-01T09:51:36;10.10;99.90
34406;DHT22;20658;45.630;8.886;2023-01-01T09:54:17;10.10;99.90
34406;DHT22;20658;45.630;8.886;2023-01-01T09:56:59;10.20;99.90
34406;DHT22;20658;45.630;8.886;2023-01-01T09:59:29;10.10;99.90
34406;DHT22;20658;45.630;8.886;2023-01-01T10:02:13;10.20;99.90
34406;DHT22;20658;45.630;8.886;2023-01-01T10:05:00;10.20;99.90
34406;DHT22;20658;45.630;8.886;2023-01-01T10:07:42;10.20;99.90
34406;DHT22;20658;45.630;8.886;2023-01-01T10:10:29;10.20;99.90
34406;DHT22;20658;45.630;8.886;2023-01-01T10:13:19;10.20;99.90
34406;DHT22;20658;45.630;8.886;2023-01-01T10:15:58;10.20;99.90
34406;DHT22;20658;45.630;8.886;2023-01-01T10:18:35;10.30;99.90
34406;DHT22;20658;45.630;8.886;2023-01-01T10:21:15;10.30;99.90
34406;DHT22;20658;45.630;8.886;2023-01-01T10:23:54;10.40;99.90
34406;DHT22;20658;45.630;8.886;2023-01-01T10:26:31;10.40;99.90
34406;DHT22;20658;45.630;8.886;2023-01-01T10:29:12;10.50;99.90
34406;DHT22;20658;45.630;8.886;2023-01-01T10:31:48;10.90;99.90
34406;DHT22;20658;45.630;8.886;2023-01-01T10:34:24;10.60;99.90
34406;DHT22;20658;45.630;8.886;2023-01-01T10:36:55;10.60;99.90
34406;DHT22;20658;45.630;8.886;2023-01-01T10:39:30;10.60;99.90
34406;DHT22;20658;45.630;8.886;2023-01-01T10:42:03;11.10;99.90
34406;DHT22;20658;45.630;8.886;2023-01-01T10:44:37;10.70;99.90
34406;DHT22;20658;45.630;8.886;2023-01-01T10:47:25;10.80;99.90
34406;DHT22;20658;45.630;8.886;2023-01-01T10:50:01;10.80;99.90
34406;DHT22;20658;45.630;8.886;2023-01-01T10:52:39;10.80;99.90
34406;DHT22;20658;45.630;8.886;2023-01-01T10:55:18;10.80;99.90
34406;DHT22;20658;45.630;8.886;2023-01-01T10:57:53;10.90;99.90
34406;DHT22;20658;45.630;8.886;2023-01-01T11:00:27;10.90;99.90
34406;DHT22;20658;45.630;8.886;2023-01-01T11:03:17;10.80;99.90
34406;DHT22;20658;45.630;8.886;2023-01-01T11:06:03;10.70;99.90
34406;DHT22;20658;45.630;8.886;2023-01-01T11:08:40;10.70;99.90
34406;DHT22;20658;45.630;8.886;2023-01-01T11:11:21;10.70;99.90
34406;DHT22;20658;45.630;8.886;2023-01-01T11:14:01;10.80;99.90
34406;DHT22;20658;45.630;8.886;2023-01-01T11:16:38;10.80;99.90
34406;DHT22;20658;45.630;8.886;2023-01-01T11:19:20;10.80;99.90
34406;DHT22;20658;45.630;8.886;2023-01-01T11:21:56;10.90;99.90
34406;DHT22;20658;45.630;8.886;2023-01-01T11:24:30;10.90;99.90
34406;DHT22;20658;45.630;8.886;2023-01-01T11:27:20;11.00;99.90
34406;DHT22;20658;45.630;8.886;2023-01-01T11:30:18;10.80;99.90
34406;DHT22;20658;45.630;8.886;2023-01-01T11:32:57;10.90;99.90
34406;DHT22;20658;45.630;8.886;2023-01-01T11:35:46;11.00;99.90
34406;DHT22;20658;45.630;8.886;2023-01-01T11:38:17;11.00;99.90
34406;DHT22;20658;45.630;8.886;2023-01-01T11:40:54;10.90;99.90
34406;DHT22;20658;45.630;8.886;2023-01-01T11:43:37;11.00;99.90
34406;DHT22;20658;45.630;8.886;2023-01-01T11:46:16;11.00;99.90
34406;DHT22;20658;45.630;8.886;2023-01-01T11:48:54;10.90;99.90
34406;DHT22;20658;45.630;8.886;2023-01-01T11:51:31;10.80;99.90
34406;DHT22;20658;45.630;8.886;2023-01-01T11:54:10;10.80;99.90
34406;DHT22;20658;45.630;8.886;2023-01-01T11:56:55;10.70;99.90
34406;DHT22;20658;45.630;8.886;2023-01-01T11:59:40;10.70;99.90
34406;DHT22;20658;45.630;8.886;2023-01-01T12:02:20;10.80;99.90
34406;DHT22;20658;45.630;8.886;2023-01-01T12:05:13;10.80;99.90
34406;DHT22;20658;45.630;8.886;2023-01-01T12:07:51;10.80;99.90
34406;DHT22;20658;45.630;8.886;2023-01-01T12:10:29;10.80;99.90
34406;DHT22;20658;45.630;8.886;2023-01-01T12:13:09;10.80;99.90
34406;DHT22;20658;45.630;8.886;2023-01-01T12:15:48;10.90;99.90
34406;DHT22;20658;45.630;8.886;2023-01-01T12:18:23;10.80;99.90
34406;DHT22;20658;45.630;8.886;2023-01-01T12:21:00;10.80;99.90
34406;DHT22;20658;45.630;8.886;2023-01-01T12:23:33;10.80;99.90
34406;DHT22;20658;45.630;8.886;2023-01-01T12:26:17;10.80;99.90
34406;DHT22;20658;45.630;8.886;2023-01-01T12:29:14;10.80;99.90
34406;DHT22;20658;45.630;8.886;2023-01-01T12:32:03;10.80;99.90
34406;DHT22;20658;45.630;8.886;2023-01-01T12:34:44;10.70;99.90
34406;DHT22;20658;45.630;8.886;2023-01-01T12:37:30;10.80;99.90
34406;DHT22;20658;45.630;8.886;2023-01-01T12:40:40;10.80;99.90
34406;DHT22;20658;45.630;8.886;2023-01-01T12:43:21;10.80;99.90
34406;DHT22;20658;45.630;8.886;2023-01-01T12:46:14;10.70;99.90
34406;DHT22;20658;45.630;8.886;2023-01-01T12:52:34;10.80;99.90
34406;DHT22;20658;45.630;8.886;2023-01-01T12:55:45;10.80;99.90
34406;DHT22;20658;45.630;8.886;2023-01-01T12:58:40;10.70;99.90
34406;DHT22;20658;45.630;8.886;2023-01-01T13:01:20;10.70;99.90
34406;DHT22;20658;45.630;8.886;2023-01-01T13:03:52;10.80;99.90
34406;DHT22;20658;45.630;8.886;2023-01-01T13:06:31;10.80;99.90
34406;DHT22;20658;45.630;8.886;2023-01-01T13:09:06;10.70;99.90
34406;DHT22;20658;45.630;8.886;2023-01-01T13:11:48;10.70;99.90
34406;DHT22;20658;45.630;8.886;2023-01-01T13:14:23;10.70;99.90
34406;DHT22;20658;45.630;8.886;2023-01-01T13:16:57;10.70;99.90
34406;DHT22;20658;45.630;8.886;2023-01-01T13:19:32;10.60;99.90
34406;DHT22;20658;45.630;8.886;2023-01-01T13:22:41;10.60;99.90
34406;DHT22;20658;45.630;8.886;2023-01-01T13:25:33;10.50;99.90
34406;DHT22;20658;45.630;8.886;2023-01-01T13:28:12;10.40;99.90
34406;DHT22;20658;45.630;8.886;2023-01-01T13:30:50;10.40;99.90
34406;DHT22;20658;45.630;8.886;2023-01-01T13:33:26;10.30;99.90
34406;DHT22;20658;45.630;8.886;2023-01-01T13:36:30;10.30;99.90
34406;DHT22;20658;45.630;8.886;2023-01-01T13:39:06;10.30;99.90
34406;DHT22;20658;45.630;8.886;2023-01-01T13:41:40;10.30;99.90
34406;DHT22;20658;45.630;8.886;2023-01-01T13:44:20;10.20;99.90
34406;DHT22;20658;45.630;8.886;2023-01-01T13:47:11;10.30;99.90
34406;DHT22;20658;45.630;8.886;2023-01-01T13:50:03;10.70;99.90
34406;DHT22;20658;45.630;8.886;2023-01-01T13:53:01;10.20;99.90
34406;DHT22;20658;45.630;8.886;2023-01-01T13:55:54;10.10;99.90
34406;DHT22;20658;45.630;8.886;2023-01-01T13:58:55;10.20;99.90
34406;DHT22;20658;45.630;8.886;2023-01-01T14:01:56;10.20;99.90
34406;DHT22;20658;45.630;8.886;2023-01-01T14:04:38;10.20;99.90
34406;DHT22;20658;45.630;8.886;2023-01-01T14:07:20;10.20;99.90
34406;DHT22;20658;45.630;8.886;2023-01-01T14:10:18;10.20;99.90
34406;DHT22;20658;45.630;8.886;2023-01-01T14:13:13;10.10;99.90
34406;DHT22;20658;45.630;8.886;2023-01-01T14:15:52;10.10;99.90
34406;DHT22;20658;45.630;8.886;2023-01-01T14:18:28;10.10;99.90
34406;DHT22;20658;45.630;8.886;2023-01-01T14:21:07;10.10;99.90
34406;DHT22;20658;45.630;8.886;2023-01-01T14:23:43;10.10;99.90
34406;DHT22;20658;45.630;8.886;2023-01-01T14:26:20;10.10;99.90
34406;DHT22;20658;45.630;8.886;2023-01-01T14:28:56;10.10;99.90
34406;DHT22;20658;45.630;8.886;2023-01-01T14:31:33;10.20;99.90
34406;DHT22;20658;45.630;8.886;2023-01-01T14:34:22;10.00;99.90
34406;DHT22;20658;45.630;8.886;2023-01-01T14:37:03;9.90;99.90
34406;DHT22;20658;45.630;8.886;2023-01-01T14:40:07;9.90;99.90
34406;DHT22;20658;45.630;8.886;2023-01-01T14:42:48;9.90;99.90
34406;DHT22;20658;45.630;8.886;2023-01-01T14:45:25;9.90;99.90
34406;DHT22;20658;45.630;8.886;2023-01-01T14:47:59;9.90;99.90
34406;DHT22;20658;45.630;8.886;2023-01-01T14:50:35;9.80;99.90
34406;DHT22;20658;45.630;8.886;2023-01-01T14:53:12;9.80;99.90
34406;DHT22;20658;45.630;8.886;2023-01-01T14:55:49;9.70;99.90
34406;DHT22;20658;45.630;8.886;2023-01-01T14:58:25;9.70;99.90
34406;DHT22;20658;45.630;8.886;2023-01-01T15:01:13;9.70;99.90
34406;DHT22;20658;45.630;8.886;2023-01-01T15:03:57;9.70;99.90
34406;DHT22;20658;45.630;8.886;2023-01-01T15:06:32;9.70;99.90
34406;DHT22;20658;45.630;8.886;2023-01-01T15:09:14;9.70;99.90
34406;DHT22;20658;45.630;8.886;2023-01-01T15:11:50;9.70;99.90
34406;DHT22;20658;45.630;8.886;2023-01-01T15:14:30;9.70;99.90
34406;DHT22;20658;45.630;8.886;2023-01-01T15:17:05;9.70;99.90
34406;DHT22;20658;45.630;8.886;2023-01-01T15:19:42;9.70;99.90
34406;DHT22;20658;45.630;8.886;2023-01-01T15:22:24;9.70;99.90
34406;DHT22;20658;45.630;8.886;2023-01-01T15:25:01;9.70;99.90
34406;DHT22;20658;45.630;8.886;2023-01-01T15:27:36;9.70;99.90
34406;DHT22;20658;45.630;8.886;2023-01-01T15:30:22;9.60;99.90
34406;DHT22;20658;45.630;8.886;2023-01-01T15:33:05;9.60;99.90
34406;DHT22;20658;45.630;8.886;2023-01-01T15:35:44;9.50;99.90
34406;DHT22;20658;45.630;8.886;2023-01-01T15:38:22;9.60;99.90
34406;DHT22;20658;45.630;8.886;2023-01-01T15:40:56;9.60;99.90
34406;DHT22;20658;45.630;8.886;2023-01-01T15:43:29;9.50;99.90
34406;DHT22;20658;45.630;8.886;2023-01-01T15:46:10;9.50;99.90
34406;DHT22;20658;45.630;8.886;2023-01-01T15:48:52;9.50;99.90
34406;DHT22;20658;45.630;8.886;2023-01-01T15:51:26;9.50;99.90
34406;DHT22;20658;45.630;8.886;2023-01-01T15:54:02;9.40;99.90
34406;DHT22;20658;45.630;8.886;2023-01-01T15:56:38;9.40;99.90
34406;DHT22;20658;45.630;8.886;2023-01-01T15:59:20;9.30;99.90
34406;DHT22;20658;45.630;8.886;2023-01-01T16:02:13;9.30;99.90
34406;DHT22;20658;45.630;8.886;2023-01-01T16:04:48;9.30;99.90
34406;DHT22;20658;45.630;8.886;2023-01-01T16:07:23;9.30;99.90
34406;DHT22;20658;45.630;8.886;2023-01-01T16:09:58;9.30;99.90
34406;DHT22;20658;45.630;8.886;2023-01-01T16:12:32;9.40;99.90
34406;DHT22;20658;45.630;8.886;2023-01-01T16:15:06;9.30;99.90
34406;DHT22;20658;45.630;8.886;2023-01-01T16:17:41;9.30;99.90
34406;DHT22;20658;45.630;8.886;2023-01-01T16:20:15;9.30;99.90
34406;DHT22;20658;45.630;8.886;2023-01-01T16:22:50;9.20;99.90
34406;DHT22;20658;45.630;8.886;2023-01-01T16:25:27;9.20;99.90
34406;DHT22;20658;45.630;8.886;2023-01-01T16:28:00;9.30;99.90
34406;DHT22;20658;45.630;8.886;2023-01-01T16:30:30;9.20;99.90
34406;DHT22;20658;45.630;8.886;2023-01-01T16:33:03;9.20;99.90
34406;DHT22;20658;45.630;8.886;2023-01-01T16:35:42;9.20;99.90
34406;DHT22;20658;45.630;8.886;2023-01-01T16:38:17;9.20;99.90
34406;DHT22;20658;45.630;8.886;2023-01-01T16:40:52;9.20;99.90
34406;DHT22;20658;45.630;8.886;2023-01-01T16:43:20;9.30;99.90
34406;DHT22;20658;45.630;8.886;2023-01-01T16:45:53;9.20;99.90
34406;DHT22;20658;45.630;8.886;2023-01-01T16:48:27;9.30;99.90
34406;DHT22;20658;45.630;8.886;2023-01-01T16:50:55;9.30;99.90